createdAt,value
2022-08-16T00:01:33.811Z,2.63
2022-08-16T00:04:05.052Z,2.85
2022-08-16T00:06:33.603Z,2.53
2022-08-16T00:09:02.021Z,2.72
2022-08-16T00:11:30.224Z,2.88
2022-08-16T00:13:58.855Z,2.97
2022-08-16T00:17:01.605Z,2.63
2022-08-16T00:19:22.772Z,3.45
2022-08-16T00:21:53.216Z,3.13
2022-08-16T00:24:31.415Z,2.92
2022-08-16T00:27:02.018Z,2.80
2022-08-16T00:29:30.446Z,2.92
2022-08-16T00:32:06.014Z,2.53
2022-08-16T00:34:44.457Z,3.22
2022-08-16T00:37:24.122Z,2.80
2022-08-16T00:39:57.442Z,2.97
2022-08-16T00:42:30.286Z,2.65
2022-08-16T00:45:08.028Z,3.33
2022-08-16T00:47:49.514Z,2.97
2022-08-16T00:50:20.295Z,3.13
2022-08-16T00:52:50.962Z,3.22
2022-08-16T00:55:22.287Z,3.33
2022-08-16T00:57:59.781Z,3.08
2022-08-16T01:00:32.724Z,3.50
2022-08-16T01:03:08.148Z,3.17
2022-08-16T01:05:42.054Z,3.25
2022-08-16T01:08:35.089Z,2.70
2022-08-16T01:11:02.596Z,3.70
2022-08-16T01:13:33.825Z,3.22
2022-08-16T01:16:10.314Z,3.50
2022-08-16T01:18:45.283Z,3.28
2022-08-16T01:21:33.590Z,3.25
2022-08-16T01:24:53.525Z,3.53
2022-08-16T01:27:15.115Z,3.22
2022-08-16T01:29:57.025Z,3.60
2022-08-16T01:32:31.901Z,3.17
2022-08-16T01:35:06.599Z,3.50
2022-08-16T01:37:42.358Z,3.60
2022-08-16T01:40:15.459Z,3.45
2022-08-16T01:42:48.028Z,3.15
2022-08-16T01:45:16.781Z,3.72
2022-08-16T01:47:50.926Z,3.80
2022-08-16T01:50:43.440Z,3.72
2022-08-16T01:53:09.951Z,3.33
2022-08-16T01:55:40.850Z,3.90
2022-08-16T01:58:10.880Z,3.28
2022-08-16T02:00:40.579Z,3.58
2022-08-16T02:03:12.551Z,3.30
2022-08-16T02:05:46.578Z,3.38
2022-08-16T02:08:33.043Z,3.40
2022-08-16T02:13:33.159Z,2.85
2022-08-16T02:16:01.437Z,3.25
2022-08-16T02:18:30.019Z,3.03
2022-08-16T02:21:00.438Z,3.63
2022-08-16T02:23:29.487Z,3.95
2022-08-16T02:25:59.530Z,3.38
2022-08-16T02:28:30.142Z,3.80
2022-08-16T02:31:00.721Z,4.13
2022-08-16T02:33:43.876Z,4.15
2022-08-16T02:36:42.460Z,4.47
2022-08-16T02:39:05.044Z,3.70
2022-08-16T02:41:37.403Z,3.45
2022-08-16T02:44:13.615Z,3.67
2022-08-16T02:46:50.269Z,4.57
2022-08-16T02:49:22.000Z,3.72
2022-08-16T02:52:00.270Z,3.80
2022-08-16T02:54:29.313Z,3.65
2022-08-16T02:56:57.446Z,4.20
2022-08-16T02:59:27.479Z,3.55
2022-08-16T03:02:08.916Z,3.70
2022-08-16T03:04:50.380Z,3.92
2022-08-16T03:07:27.560Z,3.22
2022-08-16T03:10:00.216Z,4.38
2022-08-16T03:12:30.115Z,3.58
2022-08-16T03:15:00.248Z,3.53
2022-08-16T03:17:32.201Z,3.25
2022-08-16T03:20:02.711Z,3.65
2022-08-16T03:22:31.088Z,3.92
2022-08-16T03:25:01.570Z,3.97
2022-08-16T03:27:32.323Z,3.65
2022-08-16T03:30:17.296Z,3.60
2022-08-16T03:32:47.187Z,3.45
2022-08-16T03:35:17.915Z,4.03
2022-08-16T03:38:02.073Z,3.92
2022-08-16T03:40:33.845Z,3.33
2022-08-16T03:43:20.281Z,3.40
2022-08-16T03:45:52.368Z,3.08
2022-08-16T03:51:12.970Z,3.17
2022-08-16T03:53:41.818Z,3.17
2022-08-16T03:56:19.734Z,3.05
2022-08-16T03:58:50.717Z,4.10
2022-08-16T04:01:22.087Z,3.30
2022-08-16T04:03:51.207Z,4.20
2022-08-16T04:06:21.820Z,3.47
2022-08-16T04:08:49.954Z,4.20
2022-08-16T04:11:19.815Z,3.83
2022-08-16T04:14:00.236Z,3.55
2022-08-16T04:16:37.887Z,3.63
2022-08-16T04:19:06.066Z,3.58
2022-08-16T04:21:35.871Z,3.80
2022-08-16T04:24:13.874Z,3.80
2022-08-16T04:26:46.356Z,4.00
2022-08-16T04:29:23.752Z,3.88
2022-08-16T04:31:56.029Z,3.88
2022-08-16T04:34:27.784Z,3.72
2022-08-16T04:36:56.653Z,3.20
2022-08-16T04:39:36.518Z,3.92
2022-08-16T04:42:15.344Z,3.42
2022-08-16T04:44:53.434Z,3.78
2022-08-16T04:47:33.104Z,3.88
2022-08-16T04:50:02.732Z,4.07
2022-08-16T04:52:34.969Z,3.55
2022-08-16T04:55:07.523Z,3.60
2022-08-16T05:00:32.933Z,3.35
2022-08-16T05:03:01.300Z,3.70
2022-08-16T05:05:32.863Z,3.75
2022-08-16T05:08:29.543Z,3.42
2022-08-16T05:10:58.731Z,3.35
2022-08-16T05:13:39.980Z,4.00
2022-08-16T05:16:19.687Z,3.85
2022-08-16T05:18:53.395Z,3.53
2022-08-16T05:21:25.198Z,3.70
2022-08-16T05:23:58.719Z,3.97
2022-08-16T05:26:32.146Z,3.90
2022-08-16T05:29:03.613Z,3.55
2022-08-16T05:31:33.050Z,3.40
2022-08-16T05:34:05.463Z,3.78
2022-08-16T05:36:49.270Z,3.72
2022-08-16T05:39:20.946Z,3.63
2022-08-16T05:41:51.717Z,4.60
2022-08-16T05:44:22.940Z,4.43
2022-08-16T05:46:55.813Z,3.08
2022-08-16T05:49:38.619Z,4.00
2022-08-16T05:52:11.253Z,3.67
2022-08-16T05:54:46.641Z,3.55
2022-08-16T05:57:17.013Z,4.00
2022-08-16T05:59:45.549Z,4.30
2022-08-16T06:02:14.869Z,3.85
2022-08-16T06:04:45.175Z,4.40
2022-08-16T06:07:26.016Z,4.38
2022-08-16T06:09:56.331Z,4.05
2022-08-16T06:12:26.915Z,4.95
2022-08-16T06:14:59.840Z,5.47
2022-08-16T06:17:42.508Z,5.65
2022-08-16T06:20:18.635Z,5.05
2022-08-16T06:22:58.537Z,4.72
2022-08-16T06:25:36.683Z,4.78
2022-08-16T06:28:09.665Z,5.22
2022-08-16T06:30:43.354Z,4.57
2022-08-16T06:33:12.845Z,4.78
2022-08-16T06:35:42.485Z,4.60
2022-08-16T06:38:32.701Z,5.13
2022-08-16T06:40:59.043Z,5.07
2022-08-16T06:43:28.341Z,5.07
2022-08-16T06:45:57.196Z,5.05
2022-08-16T06:48:33.021Z,4.97
2022-08-16T06:51:03.998Z,4.65
2022-08-16T06:53:33.794Z,4.95
2022-08-16T06:56:14.426Z,4.40
2022-08-16T06:58:52.675Z,4.78
2022-08-16T07:01:43.469Z,4.55
2022-08-16T07:04:11.018Z,5.38
2022-08-16T07:06:43.236Z,5.97
2022-08-16T07:09:12.613Z,5.40
2022-08-16T07:11:45.964Z,5.18
2022-08-16T07:14:24.120Z,3.88
2022-08-16T07:16:55.678Z,4.57
2022-08-16T07:20:01.391Z,4.28
2022-08-16T07:22:30.493Z,4.50
2022-08-16T07:25:07.472Z,4.20
2022-08-16T07:27:37.536Z,5.50
2022-08-16T07:30:39.636Z,4.80
2022-08-16T07:32:57.600Z,5.32
2022-08-16T07:35:26.613Z,4.75
2022-08-16T07:37:56.138Z,5.20
2022-08-16T07:40:57.903Z,5.38
2022-08-16T07:43:13.978Z,4.85
2022-08-16T07:45:42.867Z,4.97
2022-08-16T07:48:12.480Z,5.03
2022-08-16T07:50:56.789Z,4.15
2022-08-16T07:53:29.417Z,4.80
2022-08-16T07:55:58.596Z,5.65
2022-08-16T07:58:34.226Z,4.43
2022-08-16T08:01:05.635Z,4.88
2022-08-16T08:03:42.445Z,4.80
2022-08-16T08:06:11.914Z,5.10
2022-08-16T08:08:50.424Z,4.57
2022-08-16T08:11:23.609Z,5.15
2022-08-16T08:13:54.015Z,4.47
2022-08-16T08:16:30.287Z,4.22
2022-08-16T08:19:01.200Z,4.32
2022-08-16T08:22:01.305Z,4.60
2022-08-16T08:24:31.536Z,4.18
2022-08-16T08:27:00.151Z,4.75
2022-08-16T08:29:37.544Z,4.45
2022-08-16T08:32:48.994Z,4.30
2022-08-16T08:35:03.007Z,3.80
2022-08-16T08:37:51.194Z,4.13
2022-08-16T08:40:24.456Z,3.42
2022-08-16T08:43:00.033Z,4.35
2022-08-16T08:45:47.092Z,4.05
2022-08-16T08:48:33.380Z,4.20
2022-08-16T08:51:04.076Z,3.42
2022-08-16T08:53:33.348Z,4.13
2022-08-16T08:56:22.468Z,3.13
2022-08-16T08:58:55.003Z,3.80
2022-08-16T09:01:31.798Z,4.00
2022-08-16T09:04:05.846Z,3.35
2022-08-16T09:06:34.392Z,3.05
2022-08-16T09:09:03.584Z,3.30
2022-08-16T09:11:34.279Z,2.67
2022-08-16T09:14:09.333Z,2.80
2022-08-16T09:17:00.783Z,2.80
2022-08-16T09:19:33.764Z,2.60
2022-08-16T09:22:02.328Z,3.08
2022-08-16T09:24:46.844Z,3.00
2022-08-16T09:27:20.594Z,3.17
2022-08-16T09:29:48.952Z,2.63
2022-08-16T09:32:30.499Z,2.80
2022-08-16T09:35:00.187Z,2.00
2022-08-16T09:37:36.522Z,3.03
2022-08-16T09:40:32.211Z,3.30
2022-08-16T09:42:59.018Z,2.80
2022-08-16T09:45:29.214Z,3.03
2022-08-16T09:47:58.684Z,3.15
2022-08-16T09:50:36.822Z,2.53
2022-08-16T09:53:15.541Z,2.45
2022-08-16T09:55:49.554Z,2.53
2022-08-16T09:58:40.457Z,2.17
2022-08-16T10:01:11.169Z,2.33
2022-08-16T10:04:01.548Z,2.60
2022-08-16T10:06:33.480Z,2.33
2022-08-16T10:09:05.298Z,1.83
2022-08-16T10:11:51.779Z,2.00
2022-08-16T10:14:24.353Z,2.45
2022-08-16T10:16:59.544Z,2.40
2022-08-16T10:19:31.940Z,2.00
2022-08-16T10:22:04.880Z,1.98
2022-08-16T10:24:34.005Z,2.05
2022-08-16T10:27:25.643Z,1.65
2022-08-16T10:29:59.582Z,2.15
2022-08-16T10:32:32.353Z,2.20
2022-08-16T10:35:02.176Z,2.03
2022-08-16T10:37:32.601Z,2.47
2022-08-16T10:40:06.650Z,2.05
2022-08-16T10:42:55.169Z,2.55
2022-08-16T10:45:25.413Z,1.70
2022-08-16T10:48:00.615Z,2.20
2022-08-16T10:50:32.579Z,1.70
2022-08-16T10:53:07.558Z,1.70
2022-08-16T10:55:41.104Z,1.55
2022-08-16T10:58:16.960Z,1.50
2022-08-16T11:00:47.525Z,1.52
2022-08-16T11:06:09.542Z,1.55
2022-08-16T11:08:44.892Z,1.50
2022-08-16T11:11:19.605Z,1.90
2022-08-16T11:13:58.826Z,1.58
2022-08-16T11:19:17.898Z,1.55
2022-08-16T11:24:41.410Z,1.73
2022-08-16T11:27:20.258Z,1.77
2022-08-16T11:29:52.184Z,1.42
2022-08-16T11:32:30.033Z,1.48
2022-08-16T11:35:13.982Z,1.48
2022-08-16T11:40:38.788Z,1.40
2022-08-16T11:43:10.138Z,1.30
2022-08-16T11:45:38.583Z,1.40
2022-08-16T11:48:08.974Z,1.50
2022-08-16T11:50:37.405Z,1.10
2022-08-16T11:53:08.142Z,1.60
2022-08-16T11:55:38.471Z,1.17
2022-08-16T11:58:10.997Z,1.48
2022-08-16T12:00:50.989Z,1.80
2022-08-16T12:03:34.467Z,1.27
2022-08-16T12:06:24.944Z,1.50
2022-08-16T12:09:00.826Z,1.60
2022-08-16T12:11:31.935Z,1.30
2022-08-16T12:16:36.052Z,1.40
2022-08-16T12:19:10.429Z,1.30
2022-08-16T12:21:58.420Z,1.60
2022-08-16T12:24:28.139Z,1.42
2022-08-16T12:26:56.522Z,1.30
2022-08-16T12:29:25.889Z,1.33
2022-08-16T12:32:00.892Z,1.30
2022-08-16T12:34:50.559Z,1.58
2022-08-16T12:37:21.668Z,1.50
2022-08-16T12:39:52.935Z,1.42
2022-08-16T12:42:22.437Z,1.80
2022-08-16T12:45:02.865Z,1.27
2022-08-16T12:47:48.700Z,1.60
2022-08-16T12:50:18.267Z,1.50
2022-08-16T12:52:52.907Z,1.35
2022-08-16T12:55:23.853Z,1.40
2022-08-16T12:58:01.959Z,1.30
2022-08-16T13:00:33.001Z,1.10
2022-08-16T13:03:04.085Z,1.13
2022-08-16T13:05:42.906Z,1.45
2022-08-16T13:08:27.469Z,1.23
2022-08-16T13:10:59.963Z,1.35
2022-08-16T13:13:29.540Z,1.58
2022-08-16T13:16:02.077Z,1.58
2022-08-16T13:18:35.563Z,1.50
2022-08-16T13:21:06.186Z,1.40
2022-08-16T13:23:35.868Z,1.73
2022-08-16T13:26:04.388Z,1.70
2022-08-16T13:28:32.631Z,1.50
2022-08-16T13:31:01.166Z,1.40
2022-08-16T13:33:36.971Z,1.48
2022-08-16T13:36:21.045Z,1.48
2022-08-16T13:38:57.534Z,1.50
2022-08-16T13:41:30.163Z,1.77
2022-08-16T13:43:59.601Z,1.58
2022-08-16T13:46:28.833Z,1.30
2022-08-16T13:48:58.510Z,1.80
2022-08-16T13:51:30.697Z,1.73
2022-08-16T13:54:03.905Z,1.48
2022-08-16T13:56:38.708Z,1.10
2022-08-16T13:59:14.299Z,1.42
2022-08-16T14:01:54.722Z,1.60
2022-08-16T14:04:26.439Z,1.58
2022-08-16T14:06:57.207Z,1.58
2022-08-16T14:09:27.200Z,1.57
2022-08-16T14:11:56.803Z,1.48
2022-08-16T14:14:29.207Z,1.40
2022-08-16T14:16:58.455Z,1.50
2022-08-16T14:19:27.762Z,1.10
2022-08-16T14:22:13.458Z,1.50
2022-08-16T14:24:45.277Z,1.05
2022-08-16T14:27:17.091Z,1.38
2022-08-16T14:29:49.164Z,1.65
2022-08-16T14:32:27.042Z,1.70
2022-08-16T14:35:02.549Z,1.70
2022-08-16T14:37:32.674Z,1.48
2022-08-16T14:40:01.061Z,1.58
2022-08-16T14:42:31.793Z,1.70
2022-08-16T14:45:00.679Z,1.40
2022-08-16T14:47:34.268Z,1.30
2022-08-16T14:50:05.730Z,1.45
2022-08-16T14:52:54.668Z,1.58
2022-08-16T14:55:24.157Z,1.30
2022-08-16T14:57:54.473Z,1.50
2022-08-16T15:00:32.886Z,1.83
2022-08-16T15:03:09.654Z,1.40
2022-08-16T15:05:39.326Z,1.55
2022-08-16T15:08:09.970Z,1.20
2022-08-16T15:10:44.867Z,1.50
2022-08-16T15:13:15.313Z,1.40
2022-08-16T15:15:45.426Z,1.50
2022-08-16T15:18:28.047Z,1.42
2022-08-16T15:20:59.665Z,1.52
2022-08-16T15:23:31.642Z,1.40
2022-08-16T15:26:04.498Z,1.58
2022-08-16T15:28:38.014Z,1.40
2022-08-16T15:31:09.878Z,1.52
2022-08-16T15:33:48.644Z,1.52
2022-08-16T15:36:21.539Z,1.35
2022-08-16T15:39:02.734Z,1.27
2022-08-16T15:42:02.760Z,1.33
2022-08-16T15:44:51.272Z,1.60
2022-08-16T15:47:26.029Z,1.70
2022-08-16T15:49:55.999Z,1.60
2022-08-16T15:52:29.191Z,1.67
2022-08-16T15:55:13.114Z,1.50
2022-08-16T15:57:49.670Z,1.80
2022-08-16T16:00:21.245Z,1.58
2022-08-16T16:02:49.949Z,1.45
2022-08-16T16:05:19.126Z,1.80
2022-08-16T16:07:56.290Z,1.40
2022-08-16T16:10:39.419Z,1.90
2022-08-16T16:15:39.242Z,1.38
2022-08-16T16:18:09.811Z,1.70
2022-08-16T16:20:43.531Z,1.50
2022-08-16T16:23:11.990Z,1.52
2022-08-16T16:25:44.649Z,1.42
2022-08-16T16:29:05.393Z,1.73
2022-08-16T16:31:04.713Z,1.38
2022-08-16T16:33:34.048Z,1.45
2022-08-16T16:36:06.827Z,1.58
2022-08-16T16:38:35.826Z,1.55
2022-08-16T16:41:10.425Z,1.27
2022-08-16T16:43:40.507Z,1.50
2022-08-16T16:46:40.874Z,1.40
2022-08-16T16:48:58.174Z,1.60
2022-08-16T16:51:28.033Z,1.50
2022-08-16T16:53:57.130Z,1.48
2022-08-16T16:56:31.305Z,1.52
2022-08-16T16:59:04.914Z,1.67
2022-08-16T17:01:56.659Z,1.70
2022-08-16T17:04:31.662Z,1.40
2022-08-16T17:07:01.262Z,1.70
2022-08-16T17:09:29.666Z,1.42
2022-08-16T17:11:59.952Z,1.40
2022-08-16T17:14:33.888Z,1.30
2022-08-16T17:17:04.909Z,1.52
2022-08-16T17:19:33.820Z,1.47
2022-08-16T17:22:14.625Z,1.40
2022-08-16T17:24:50.567Z,1.70
2022-08-16T17:27:32.911Z,1.55
2022-08-16T17:30:15.606Z,1.55
2022-08-16T17:32:50.130Z,1.40
2022-08-16T17:35:21.779Z,1.70
2022-08-16T17:37:52.532Z,1.10
2022-08-16T17:40:47.504Z,1.20
2022-08-16T17:43:18.612Z,1.33
2022-08-16T17:45:47.868Z,1.50
2022-08-16T17:48:16.037Z,1.48
2022-08-16T17:50:45.369Z,1.92
2022-08-16T17:53:14.988Z,1.30
2022-08-16T17:55:46.602Z,1.50
2022-08-16T17:58:22.722Z,1.23
2022-08-16T18:00:54.013Z,1.75
2022-08-16T18:04:07.803Z,1.30
2022-08-16T18:06:18.316Z,1.33
2022-08-16T18:08:48.315Z,1.40
2022-08-16T18:11:18.469Z,1.03
2022-08-16T18:13:49.379Z,1.67
2022-08-16T18:16:18.452Z,1.42
2022-08-16T18:18:47.622Z,1.40
2022-08-16T18:21:34.030Z,1.17
2022-08-16T18:24:02.242Z,1.80
2022-08-16T18:26:30.373Z,1.50
2022-08-16T18:28:59.944Z,1.50
2022-08-16T18:31:28.192Z,1.73
2022-08-16T18:33:56.584Z,1.52
2022-08-16T18:36:25.156Z,1.20
2022-08-16T18:38:54.618Z,1.70
2022-08-16T18:41:25.163Z,1.42
2022-08-16T18:44:24.003Z,1.80
2022-08-16T18:46:45.658Z,2.00
2022-08-16T18:49:18.963Z,1.77
2022-08-16T18:51:47.520Z,1.60
2022-08-16T18:54:19.025Z,1.45
2022-08-16T18:56:56.207Z,1.55
2022-08-16T18:59:26.921Z,1.52
2022-08-16T19:02:00.282Z,1.98
2022-08-16T19:04:56.681Z,2.08
2022-08-16T19:07:22.883Z,2.17
2022-08-16T19:10:00.602Z,1.77
2022-08-16T19:12:37.740Z,2.00
2022-08-16T19:15:14.208Z,1.80
2022-08-16T19:17:44.694Z,1.58
2022-08-16T19:20:14.749Z,1.90
2022-08-16T19:25:46.135Z,2.05
2022-08-16T19:28:49.257Z,1.98
2022-08-16T19:31:05.928Z,1.35
2022-08-16T19:33:35.436Z,1.98
2022-08-16T19:36:06.015Z,1.70
2022-08-16T19:38:34.233Z,1.85
2022-08-16T19:41:02.588Z,1.45
2022-08-16T19:43:30.797Z,1.55
2022-08-16T19:45:59.098Z,1.60
2022-08-16T19:48:27.301Z,2.10
2022-08-16T19:50:56.795Z,1.77
2022-08-16T19:53:25.163Z,1.60
2022-08-16T19:55:53.290Z,1.95
2022-08-16T19:58:21.425Z,1.73
2022-08-16T20:00:52.430Z,1.60
2022-08-16T20:03:25.603Z,1.83
2022-08-16T20:05:53.845Z,1.55
2022-08-16T20:08:23.577Z,1.60
2022-08-16T20:10:51.695Z,1.60
2022-08-16T20:13:23.031Z,1.63
2022-08-16T20:15:52.855Z,1.98
2022-08-16T20:18:25.512Z,1.60
2022-08-16T20:20:55.796Z,1.50
2022-08-16T20:23:25.663Z,2.00
2022-08-16T20:25:56.014Z,1.70
2022-08-16T20:28:39.672Z,1.83
2022-08-16T20:31:12.606Z,1.73
2022-08-16T20:33:40.883Z,2.13
2022-08-16T20:36:16.283Z,2.00
2022-08-16T20:38:47.870Z,1.85
2022-08-16T20:41:16.427Z,1.90
2022-08-16T20:43:47.492Z,2.10
2022-08-16T20:46:15.780Z,1.98
2022-08-16T20:48:44.115Z,2.15
2022-08-16T20:51:12.692Z,1.80
2022-08-16T20:53:41.493Z,1.50
2022-08-16T20:56:12.339Z,1.70
2022-08-16T20:58:40.795Z,1.85
2022-08-16T21:01:09.683Z,1.98
2022-08-16T21:03:38.399Z,2.17
2022-08-16T21:06:06.847Z,2.33
2022-08-16T21:08:53.470Z,2.60
2022-08-16T21:11:23.628Z,2.55
2022-08-16T21:13:52.875Z,1.85
2022-08-16T21:16:28.666Z,1.80
2022-08-16T21:18:57.078Z,2.60
2022-08-16T21:21:31.885Z,2.00
2022-08-16T21:24:02.203Z,2.20
2022-08-16T21:26:31.745Z,2.20
2022-08-16T21:29:00.540Z,2.00
2022-08-16T21:31:28.707Z,1.88
2022-08-16T21:33:57.064Z,2.00
2022-08-16T21:36:35.833Z,1.85
2022-08-16T21:39:06.539Z,1.92
2022-08-16T21:41:38.553Z,2.10
2022-08-16T21:44:07.050Z,2.15
2022-08-16T21:46:35.491Z,2.65
2022-08-16T21:49:04.655Z,2.42
2022-08-16T21:51:33.320Z,2.25
2022-08-16T21:54:01.600Z,2.08
2022-08-16T21:56:30.057Z,1.98
2022-08-16T21:58:59.644Z,1.95
2022-08-16T22:01:27.781Z,1.77
2022-08-16T22:04:04.451Z,2.25
2022-08-16T22:06:44.992Z,2.40
2022-08-16T22:09:15.531Z,2.60
2022-08-16T22:11:44.785Z,1.88
2022-08-16T22:14:14.227Z,2.47
2022-08-16T22:16:43.931Z,2.00
2022-08-16T22:19:13.755Z,2.50
2022-08-16T22:21:41.914Z,2.22
2022-08-16T22:24:10.625Z,1.95
2022-08-16T22:26:43.008Z,2.17
2022-08-16T22:29:16.920Z,2.13
2022-08-16T22:31:45.569Z,2.30
2022-08-16T22:34:14.723Z,2.00
2022-08-16T22:36:43.002Z,1.77
2022-08-16T22:39:13.463Z,2.10
2022-08-16T22:41:43.444Z,2.25
2022-08-16T22:44:11.541Z,2.17
2022-08-16T22:46:41.140Z,2.20
2022-08-16T22:49:09.925Z,1.98
2022-08-16T22:51:38.602Z,2.20
2022-08-16T22:54:47.282Z,2.20
2022-08-16T22:56:57.313Z,2.13
2022-08-16T22:59:26.082Z,2.40
2022-08-16T23:01:56.003Z,2.25
2022-08-16T23:04:25.124Z,2.42
2022-08-16T23:06:53.436Z,2.42
2022-08-16T23:09:21.881Z,2.40
2022-08-16T23:11:50.185Z,2.10
2022-08-16T23:14:18.909Z,2.17
2022-08-16T23:16:47.395Z,1.92
2022-08-16T23:19:17.943Z,2.30
2022-08-16T23:21:48.955Z,2.25
2022-08-16T23:24:19.419Z,2.20
2022-08-16T23:26:49.326Z,2.35
2022-08-16T23:29:24.715Z,2.40
2022-08-16T23:31:58.065Z,2.35
2022-08-16T23:34:28.977Z,2.42
2022-08-16T23:36:57.729Z,2.45
2022-08-16T23:39:26.112Z,2.17
2022-08-16T23:41:55.371Z,2.50
2022-08-16T23:44:56.699Z,2.40
2022-08-16T23:47:12.006Z,2.20
2022-08-16T23:49:57.923Z,2.33
2022-08-16T23:52:42.310Z,2.40
2022-08-16T23:55:17.982Z,2.90
2022-08-16T23:57:47.193Z,2.47
